MMCS

Abraham González International Airport

Ciudad Juárez, Mexico
TAF MMCS 260455Z 2606/2706 08010KT P6SM SCT250 FM261700 25012KT P6SM BKN250 FM262200 36010KT P6SM SCT250 FM270500 08015G25KT 5SM BLDU SCT250
Issued Valid From Valid To
Apr-26 @ 04:55 UTC
(an hour ago)
Apr-26 @ 06:00 UTC
(in a few seconds)
Apr-27 @ 06:00 UTC
(in 24 hours)
Apr-26 @ 06:00 to Apr-26 @ 17:00
TAF MMCS 260455Z 2606/2706 08010KT P6SM SCT250
Wind Visibility Clouds
80° at 10 knots Greater than 6 miles
  • Scattered at 25,000' AGL
From Apr-26 @ 17:00 to Apr-26 @ 22:00
FM261700 25012KT P6SM BKN250
Wind Visibility Clouds
250° at 12 knots Greater than 6 miles
  • Broken at 25,000' AGL
From Apr-26 @ 22:00 to Apr-27 @ 05:00
FM262200 36010KT P6SM SCT250
Wind Visibility Clouds
360° at 10 knots Greater than 6 miles
  • Scattered at 25,000' AGL
From Apr-27 @ 05:00 to Apr-27 @ 06:00
FM270500 08015G25KT 5SM BLDU SCT250
Wind Visibility Clouds Conditions
80° at 15 knots
 Gusting to 25 knots
5 miles
  • Scattered at 25,000' AGL
  • Blowing
  • Dust
TAF MMCS 260455Z 2606/2706 08010KT P6SM SCT250 FM261700 25012KT P6SM BKN250 FM262200 36010KT P6SM SCT250 FM270500 08015G25KT 5SM BLDU SCT250
Issued Apr-26 @ 04:55 UTC
(an hour ago)
Valid From Apr-26 @ 06:00 UTC
(in a few seconds)
Valid To Apr-27 @ 06:00 UTC
(in 24 hours)
Apr-26 @ 06:00 - Apr-26 @ 17:00
Wind Visibility
80° at 10 knots Greater than 6 miles
Clouds
  • Scattered at 25,000' AGL
From Apr-26 @ 17:00 - Apr-26 @ 22:00
Wind Visibility
250° at 12 knots Greater than 6 miles
Clouds
  • Broken at 25,000' AGL
From Apr-26 @ 22:00 - Apr-27 @ 05:00
Wind Visibility
360° at 10 knots Greater than 6 miles
Clouds
  • Scattered at 25,000' AGL
From Apr-27 @ 05:00 - Apr-27 @ 06:00
Wind Visibility
80° at 15 knots
 Gusting to 25 knots
5 miles
Clouds
  • Scattered at 25,000' AGL
Conditions
  • Blowing
  • Dust